sensor_id;sensor_type;location;lat;lon;timestamp;P1;durP1;ratioP1;P2;durP2;ratioP2
17658;SDS011;8948;51.534;8.262;2022-11-03T00:04:48;12.90;;;2.50;;
17658;SDS011;8948;51.534;8.262;2022-11-03T00:09:49;12.07;;;3.30;;
17658;SDS011;8948;51.534;8.262;2022-11-03T00:14:49;9.80;;;2.40;;
17658;SDS011;8948;51.534;8.262;2022-11-03T00:19:50;9.97;;;2.53;;
17658;SDS011;8948;51.534;8.262;2022-11-03T00:24:50;17.90;;;2.57;;
17658;SDS011;8948;51.534;8.262;2022-11-03T00:29:51;14.17;;;2.60;;
17658;SDS011;8948;51.534;8.262;2022-11-03T00:34:51;8.80;;;2.40;;
17658;SDS011;8948;51.534;8.262;2022-11-03T00:39:52;15.97;;;2.57;;
17658;SDS011;8948;51.534;8.262;2022-11-03T00:44:52;15.77;;;2.27;;
17658;SDS011;8948;51.534;8.262;2022-11-03T00:49:53;11.13;;;3.07;;
17658;SDS011;8948;51.534;8.262;2022-11-03T00:54:53;15.90;;;2.37;;
17658;SDS011;8948;51.534;8.262;2022-11-03T00:59:54;16.63;;;3.00;;
17658;SDS011;8948;51.534;8.262;2022-11-03T01:04:54;14.47;;;2.77;;
17658;SDS011;8948;51.534;8.262;2022-11-03T01:10:13;13.47;;;3.10;;
17658;SDS011;8948;51.534;8.262;2022-11-03T01:15:14;22.50;;;3.30;;
17658;SDS011;8948;51.534;8.262;2022-11-03T01:20:15;19.00;;;3.13;;
17658;SDS011;8948;51.534;8.262;2022-11-03T01:25:15;16.27;;;3.00;;
17658;SDS011;8948;51.534;8.262;2022-11-03T01:30:16;15.93;;;3.03;;
17658;SDS011;8948;51.534;8.262;2022-11-03T01:35:16;12.53;;;2.60;;
17658;SDS011;8948;51.534;8.262;2022-11-03T01:40:18;13.50;;;3.10;;
17658;SDS011;8948;51.534;8.262;2022-11-03T01:45:18;12.87;;;2.80;;
17658;SDS011;8948;51.534;8.262;2022-11-03T01:50:20;11.77;;;2.63;;
17658;SDS011;8948;51.534;8.262;2022-11-03T01:55:21;22.07;;;2.90;;
17658;SDS011;8948;51.534;8.262;2022-11-03T02:00:27;12.23;;;2.50;;
17658;SDS011;8948;51.534;8.262;2022-11-03T02:05:28;14.03;;;2.57;;
17658;SDS011;8948;51.534;8.262;2022-11-03T02:10:29;12.03;;;2.47;;
17658;SDS011;8948;51.534;8.262;2022-11-03T02:15:29;13.90;;;2.47;;
17658;SDS011;8948;51.534;8.262;2022-11-03T02:20:32;12.17;;;3.17;;
17658;SDS011;8948;51.534;8.262;2022-11-03T02:30:42;11.40;;;2.23;;
17658;SDS011;8948;51.534;8.262;2022-11-03T02:35:51;12.73;;;2.97;;
17658;SDS011;8948;51.534;8.262;2022-11-03T02:40:59;18.47;;;3.53;;
17658;SDS011;8948;51.534;8.262;2022-11-03T02:46:02;15.13;;;3.00;;
17658;SDS011;8948;51.534;8.262;2022-11-03T02:51:04;8.90;;;2.50;;
17658;SDS011;8948;51.534;8.262;2022-11-03T02:56:06;16.67;;;2.70;;
17658;SDS011;8948;51.534;8.262;2022-11-03T03:01:57;13.63;;;3.03;;
17658;SDS011;8948;51.534;8.262;2022-11-03T03:06:49;13.57;;;2.83;;
17658;SDS011;8948;51.534;8.262;2022-11-03T03:12:02;14.07;;;2.93;;
17658;SDS011;8948;51.534;8.262;2022-11-03T03:17:11;9.97;;;2.37;;
17658;SDS011;8948;51.534;8.262;2022-11-03T03:22:27;12.70;;;2.80;;
17658;SDS011;8948;51.534;8.262;2022-11-03T03:27:34;8.90;;;2.70;;
17658;SDS011;8948;51.534;8.262;2022-11-03T03:32:45;11.90;;;3.20;;
17658;SDS011;8948;51.534;8.262;2022-11-03T03:37:49;12.20;;;3.07;;
17658;SDS011;8948;51.534;8.262;2022-11-03T03:42:52;13.37;;;2.60;;
17658;SDS011;8948;51.534;8.262;2022-11-03T03:47:53;10.93;;;2.40;;
17658;SDS011;8948;51.534;8.262;2022-11-03T03:52:56;17.43;;;3.20;;
17658;SDS011;8948;51.534;8.262;2022-11-03T03:57:59;12.93;;;2.43;;
17658;SDS011;8948;51.534;8.262;2022-11-03T04:03:00;15.27;;;3.10;;
17658;SDS011;8948;51.534;8.262;2022-11-03T04:08:00;12.20;;;2.63;;
17658;SDS011;8948;51.534;8.262;2022-11-03T04:13:01;13.33;;;2.77;;
17658;SDS011;8948;51.534;8.262;2022-11-03T04:18:20;15.80;;;2.77;;
17658;SDS011;8948;51.534;8.262;2022-11-03T04:23:40;15.40;;;2.70;;
17658;SDS011;8948;51.534;8.262;2022-11-03T04:28:41;13.30;;;2.97;;
17658;SDS011;8948;51.534;8.262;2022-11-03T04:33:42;16.40;;;3.00;;
17658;SDS011;8948;51.534;8.262;2022-11-03T04:38:43;12.83;;;2.50;;
17658;SDS011;8948;51.534;8.262;2022-11-03T04:43:44;10.43;;;3.07;;
17658;SDS011;8948;51.534;8.262;2022-11-03T04:48:45;13.80;;;2.67;;
17658;SDS011;8948;51.534;8.262;2022-11-03T04:53:49;10.47;;;3.13;;
17658;SDS011;8948;51.534;8.262;2022-11-03T04:58:53;13.37;;;2.60;;
17658;SDS011;8948;51.534;8.262;2022-11-03T05:03:54;8.83;;;2.47;;
17658;SDS011;8948;51.534;8.262;2022-11-03T05:08:56;11.93;;;2.30;;
17658;SDS011;8948;51.534;8.262;2022-11-03T05:14:00;15.07;;;2.80;;
17658;SDS011;8948;51.534;8.262;2022-11-03T05:24:34;12.87;;;3.17;;
17658;SDS011;8948;51.534;8.262;2022-11-03T05:29:35;8.80;;;2.53;;
17658;SDS011;8948;51.534;8.262;2022-11-03T05:34:43;15.43;;;2.57;;
17658;SDS011;8948;51.534;8.262;2022-11-03T05:39:47;15.00;;;2.97;;
17658;SDS011;8948;51.534;8.262;2022-11-03T05:44:49;13.33;;;2.80;;
17658;SDS011;8948;51.534;8.262;2022-11-03T05:49:51;20.30;;;3.10;;
17658;SDS011;8948;51.534;8.262;2022-11-03T05:54:56;14.77;;;2.57;;
17658;SDS011;8948;51.534;8.262;2022-11-03T05:59:58;11.80;;;2.83;;
17658;SDS011;8948;51.534;8.262;2022-11-03T06:04:59;12.07;;;3.23;;
17658;SDS011;8948;51.534;8.262;2022-11-03T06:09:59;18.10;;;2.80;;
17658;SDS011;8948;51.534;8.262;2022-11-03T06:15:00;11.70;;;2.73;;
17658;SDS011;8948;51.534;8.262;2022-11-03T06:20:06;14.37;;;2.50;;
17658;SDS011;8948;51.534;8.262;2022-11-03T06:25:21;12.47;;;2.63;;
17658;SDS011;8948;51.534;8.262;2022-11-03T06:30:33;12.27;;;3.50;;
17658;SDS011;8948;51.534;8.262;2022-11-03T06:35:38;14.90;;;2.50;;
17658;SDS011;8948;51.534;8.262;2022-11-03T06:40:39;10.60;;;2.83;;
17658;SDS011;8948;51.534;8.262;2022-11-03T06:45:42;11.33;;;2.73;;
17658;SDS011;8948;51.534;8.262;2022-11-03T06:50:49;12.07;;;2.73;;
17658;SDS011;8948;51.534;8.262;2022-11-03T06:55:49;14.33;;;2.80;;
17658;SDS011;8948;51.534;8.262;2022-11-03T07:00:50;11.23;;;3.13;;
17658;SDS011;8948;51.534;8.262;2022-11-03T07:05:59;17.13;;;3.20;;
17658;SDS011;8948;51.534;8.262;2022-11-03T07:11:10;13.53;;;3.23;;
17658;SDS011;8948;51.534;8.262;2022-11-03T07:16:25;12.43;;;3.07;;
17658;SDS011;8948;51.534;8.262;2022-11-03T07:21:38;10.57;;;2.77;;
17658;SDS011;8948;51.534;8.262;2022-11-03T07:26:42;9.80;;;2.67;;
17658;SDS011;8948;51.534;8.262;2022-11-03T07:31:43;13.03;;;2.80;;
17658;SDS011;8948;51.534;8.262;2022-11-03T07:36:43;9.83;;;2.57;;
17658;SDS011;8948;51.534;8.262;2022-11-03T07:41:44;9.40;;;2.73;;
17658;SDS011;8948;51.534;8.262;2022-11-03T07:46:46;10.90;;;1.97;;
17658;SDS011;8948;51.534;8.262;2022-11-03T07:51:49;12.30;;;2.93;;
17658;SDS011;8948;51.534;8.262;2022-11-03T07:57:02;10.83;;;3.10;;
17658;SDS011;8948;51.534;8.262;2022-11-03T08:02:13;12.43;;;2.50;;
17658;SDS011;8948;51.534;8.262;2022-11-03T08:07:20;14.50;;;2.30;;
17658;SDS011;8948;51.534;8.262;2022-11-03T08:12:20;8.20;;;2.43;;
17658;SDS011;8948;51.534;8.262;2022-11-03T08:17:21;9.83;;;2.30;;
17658;SDS011;8948;51.534;8.262;2022-11-03T08:22:21;11.00;;;2.40;;
17658;SDS011;8948;51.534;8.262;2022-11-03T08:27:24;6.13;;;1.93;;
17658;SDS011;8948;51.534;8.262;2022-11-03T08:32:26;12.93;;;2.33;;
17658;SDS011;8948;51.534;8.262;2022-11-03T08:37:27;8.60;;;2.53;;
17658;SDS011;8948;51.534;8.262;2022-11-03T08:42:27;5.80;;;2.23;;
17658;SDS011;8948;51.534;8.262;2022-11-03T08:47:28;6.97;;;2.50;;
17658;SDS011;8948;51.534;8.262;2022-11-03T08:52:28;8.13;;;2.30;;
17658;SDS011;8948;51.534;8.262;2022-11-03T08:57:29;12.53;;;2.40;;
17658;SDS011;8948;51.534;8.262;2022-11-03T09:02:29;7.97;;;2.20;;
17658;SDS011;8948;51.534;8.262;2022-11-03T09:07:30;12.70;;;2.33;;
17658;SDS011;8948;51.534;8.262;2022-11-03T09:12:31;10.37;;;2.43;;
17658;SDS011;8948;51.534;8.262;2022-11-03T09:17:31;8.33;;;2.20;;
17658;SDS011;8948;51.534;8.262;2022-11-03T09:22:32;10.37;;;2.27;;
17658;SDS011;8948;51.534;8.262;2022-11-03T09:27:32;7.00;;;2.20;;
17658;SDS011;8948;51.534;8.262;2022-11-03T09:32:33;10.87;;;1.97;;
17658;SDS011;8948;51.534;8.262;2022-11-03T09:37:34;5.33;;;1.90;;
17658;SDS011;8948;51.534;8.262;2022-11-03T09:42:35;9.67;;;2.60;;
17658;SDS011;8948;51.534;8.262;2022-11-03T09:47:40;9.40;;;2.73;;
17658;SDS011;8948;51.534;8.262;2022-11-03T09:52:42;15.13;;;3.10;;
17658;SDS011;8948;51.534;8.262;2022-11-03T09:57:44;9.27;;;2.30;;
17658;SDS011;8948;51.534;8.262;2022-11-03T10:02:45;12.60;;;2.40;;
17658;SDS011;8948;51.534;8.262;2022-11-03T10:07:46;10.00;;;2.83;;
17658;SDS011;8948;51.534;8.262;2022-11-03T10:12:48;9.07;;;2.40;;
17658;SDS011;8948;51.534;8.262;2022-11-03T10:17:50;9.23;;;1.90;;
17658;SDS011;8948;51.534;8.262;2022-11-03T10:22:52;12.30;;;2.50;;
17658;SDS011;8948;51.534;8.262;2022-11-03T10:38:29;9.33;;;2.73;;
17658;SDS011;8948;51.534;8.262;2022-11-03T10:43:34;7.77;;;2.13;;
17658;SDS011;8948;51.534;8.262;2022-11-03T10:48:34;10.73;;;2.50;;
17658;SDS011;8948;51.534;8.262;2022-11-03T10:53:35;7.97;;;2.30;;
17658;SDS011;8948;51.534;8.262;2022-11-03T10:58:36;8.93;;;2.57;;
17658;SDS011;8948;51.534;8.262;2022-11-03T11:03:40;7.80;;;2.57;;
17658;SDS011;8948;51.534;8.262;2022-11-03T11:08:43;8.70;;;2.40;;
17658;SDS011;8948;51.534;8.262;2022-11-03T11:13:43;11.10;;;3.03;;
17658;SDS011;8948;51.534;8.262;2022-11-03T11:23:45;8.10;;;1.83;;
17658;SDS011;8948;51.534;8.262;2022-11-03T11:49:59;10.33;;;2.50;;
17658;SDS011;8948;51.534;8.262;2022-11-03T11:55:11;7.90;;;2.55;;
17658;SDS011;8948;51.534;8.262;2022-11-03T12:00:29;9.63;;;2.40;;
17658;SDS011;8948;51.534;8.262;2022-11-03T12:05:32;9.90;;;2.53;;
17658;SDS011;8948;51.534;8.262;2022-11-03T12:10:34;10.57;;;2.30;;
17658;SDS011;8948;51.534;8.262;2022-11-03T12:15:54;8.97;;;1.90;;
17658;SDS011;8948;51.534;8.262;2022-11-03T12:20:55;6.57;;;2.05;;
17658;SDS011;8948;51.534;8.262;2022-11-03T12:25:56;8.83;;;2.20;;
17658;SDS011;8948;51.534;8.262;2022-11-03T12:30:57;9.47;;;2.50;;
17658;SDS011;8948;51.534;8.262;2022-11-03T12:35:58;5.72;;;2.17;;
17658;SDS011;8948;51.534;8.262;2022-11-03T12:40:59;12.07;;;2.55;;
17658;SDS011;8948;51.534;8.262;2022-11-03T12:46:19;8.40;;;2.30;;
17658;SDS011;8948;51.534;8.262;2022-11-03T12:51:22;6.90;;;2.15;;
17658;SDS011;8948;51.534;8.262;2022-11-03T12:56:23;6.10;;;2.40;;
17658;SDS011;8948;51.534;8.262;2022-11-03T13:01:24;6.88;;;2.25;;
17658;SDS011;8948;51.534;8.262;2022-11-03T13:06:25;7.18;;;2.22;;
17658;SDS011;8948;51.534;8.262;2022-11-03T13:11:25;4.47;;;2.10;;
17658;SDS011;8948;51.534;8.262;2022-11-03T13:16:45;5.03;;;1.90;;
17658;SDS011;8948;51.534;8.262;2022-11-03T13:21:45;5.47;;;2.40;;
17658;SDS011;8948;51.534;8.262;2022-11-03T13:26:46;10.82;;;2.25;;
17658;SDS011;8948;51.534;8.262;2022-11-03T13:31:46;8.73;;;2.03;;
17658;SDS011;8948;51.534;8.262;2022-11-03T13:36:47;8.88;;;1.95;;
17658;SDS011;8948;51.534;8.262;2022-11-03T13:41:47;6.30;;;2.05;;
17658;SDS011;8948;51.534;8.262;2022-11-03T13:46:48;5.85;;;2.17;;
17658;SDS011;8948;51.534;8.262;2022-11-03T13:51:49;7.70;;;2.78;;
17658;SDS011;8948;51.534;8.262;2022-11-03T13:56:49;12.75;;;3.88;;
17658;SDS011;8948;51.534;8.262;2022-11-03T14:01:50;10.07;;;4.15;;
17658;SDS011;8948;51.534;8.262;2022-11-03T14:06:50;9.30;;;4.10;;
17658;SDS011;8948;51.534;8.262;2022-11-03T14:11:51;6.03;;;1.90;;
17658;SDS011;8948;51.534;8.262;2022-11-03T14:17:10;7.38;;;1.83;;
17658;SDS011;8948;51.534;8.262;2022-11-03T14:22:11;2.90;;;1.67;;
17658;SDS011;8948;51.534;8.262;2022-11-03T14:27:11;6.35;;;1.80;;
17658;SDS011;8948;51.534;8.262;2022-11-03T14:32:15;5.63;;;2.20;;
17658;SDS011;8948;51.534;8.262;2022-11-03T14:37:16;7.00;;;1.70;;
17658;SDS011;8948;51.534;8.262;2022-11-03T14:42:17;5.88;;;1.77;;
17658;SDS011;8948;51.534;8.262;2022-11-03T14:47:18;5.45;;;1.67;;
17658;SDS011;8948;51.534;8.262;2022-11-03T14:52:20;4.10;;;1.83;;
17658;SDS011;8948;51.534;8.262;2022-11-03T14:57:21;4.88;;;1.30;;
17658;SDS011;8948;51.534;8.262;2022-11-03T15:02:21;5.80;;;1.80;;
17658;SDS011;8948;51.534;8.262;2022-11-03T15:07:22;4.30;;;1.60;;
17658;SDS011;8948;51.534;8.262;2022-11-03T15:12:22;6.32;;;1.70;;
17658;SDS011;8948;51.534;8.262;2022-11-03T15:17:23;7.93;;;2.00;;
17658;SDS011;8948;51.534;8.262;2022-11-03T15:22:23;4.18;;;1.80;;
17658;SDS011;8948;51.534;8.262;2022-11-03T15:27:24;4.25;;;1.80;;
17658;SDS011;8948;51.534;8.262;2022-11-03T15:32:25;6.40;;;2.15;;
17658;SDS011;8948;51.534;8.262;2022-11-03T15:37:25;6.32;;;1.83;;
17658;SDS011;8948;51.534;8.262;2022-11-03T15:42:26;5.30;;;2.10;;
17658;SDS011;8948;51.534;8.262;2022-11-03T15:47:26;5.13;;;1.60;;
17658;SDS011;8948;51.534;8.262;2022-11-03T15:52:27;4.53;;;2.05;;
17658;SDS011;8948;51.534;8.262;2022-11-03T15:57:28;4.22;;;1.88;;
17658;SDS011;8948;51.534;8.262;2022-11-03T16:02:29;6.30;;;1.90;;
17658;SDS011;8948;51.534;8.262;2022-11-03T16:07:29;3.25;;;1.83;;
17658;SDS011;8948;51.534;8.262;2022-11-03T16:12:30;5.50;;;1.80;;
17658;SDS011;8948;51.534;8.262;2022-11-03T16:17:31;6.25;;;2.22;;
17658;SDS011;8948;51.534;8.262;2022-11-03T16:22:31;4.97;;;1.60;;
17658;SDS011;8948;51.534;8.262;2022-11-03T16:27:32;4.88;;;1.73;;
17658;SDS011;8948;51.534;8.262;2022-11-03T16:32:32;4.13;;;2.10;;
17658;SDS011;8948;51.534;8.262;2022-11-03T16:37:33;4.57;;;1.80;;
17658;SDS011;8948;51.534;8.262;2022-11-03T16:42:33;5.75;;;1.88;;
17658;SDS011;8948;51.534;8.262;2022-11-03T16:47:37;5.63;;;1.80;;
17658;SDS011;8948;51.534;8.262;2022-11-03T16:52:38;5.63;;;2.10;;
17658;SDS011;8948;51.534;8.262;2022-11-03T16:57:38;5.85;;;2.10;;
17658;SDS011;8948;51.534;8.262;2022-11-03T17:02:39;7.50;;;2.38;;
17658;SDS011;8948;51.534;8.262;2022-11-03T17:07:40;7.57;;;2.40;;
17658;SDS011;8948;51.534;8.262;2022-11-03T17:12:41;6.73;;;2.40;;
17658;SDS011;8948;51.534;8.262;2022-11-03T17:17:41;6.40;;;2.10;;
17658;SDS011;8948;51.534;8.262;2022-11-03T17:22:42;10.18;;;3.58;;
17658;SDS011;8948;51.534;8.262;2022-11-03T17:28:16;6.10;;;2.57;;
17658;SDS011;8948;51.534;8.262;2022-11-03T17:33:11;6.37;;;2.70;;
17658;SDS011;8948;51.534;8.262;2022-11-03T17:38:16;4.57;;;2.37;;
17658;SDS011;8948;51.534;8.262;2022-11-03T17:43:21;7.83;;;2.73;;
17658;SDS011;8948;51.534;8.262;2022-11-03T17:48:23;8.33;;;2.90;;
17658;SDS011;8948;51.534;8.262;2022-11-03T17:53:27;9.17;;;2.67;;
17658;SDS011;8948;51.534;8.262;2022-11-03T17:58:32;5.17;;;2.40;;
17658;SDS011;8948;51.534;8.262;2022-11-03T18:03:34;5.90;;;2.83;;
17658;SDS011;8948;51.534;8.262;2022-11-03T18:08:35;5.70;;;2.70;;
17658;SDS011;8948;51.534;8.262;2022-11-03T18:13:36;6.33;;;2.60;;
17658;SDS011;8948;51.534;8.262;2022-11-03T18:18:40;4.43;;;2.20;;
17658;SDS011;8948;51.534;8.262;2022-11-03T18:23:43;5.33;;;2.67;;
17658;SDS011;8948;51.534;8.262;2022-11-03T18:28:44;4.53;;;2.33;;
17658;SDS011;8948;51.534;8.262;2022-11-03T18:33:44;5.23;;;2.70;;
17658;SDS011;8948;51.534;8.262;2022-11-03T18:38:45;7.10;;;2.17;;
17658;SDS011;8948;51.534;8.262;2022-11-03T18:43:47;7.17;;;3.00;;
17658;SDS011;8948;51.534;8.262;2022-11-03T18:48:47;4.80;;;2.50;;
17658;SDS011;8948;51.534;8.262;2022-11-03T18:53:48;7.10;;;2.87;;
17658;SDS011;8948;51.534;8.262;2022-11-03T18:58:49;3.90;;;2.30;;
17658;SDS011;8948;51.534;8.262;2022-11-03T19:03:52;10.47;;;3.20;;
17658;SDS011;8948;51.534;8.262;2022-11-03T19:08:56;5.70;;;2.50;;
17658;SDS011;8948;51.534;8.262;2022-11-03T19:13:58;6.13;;;4.43;;
17658;SDS011;8948;51.534;8.262;2022-11-03T19:18:59;4.97;;;2.30;;
17658;SDS011;8948;51.534;8.262;2022-11-03T19:24:00;5.30;;;3.20;;
17658;SDS011;8948;51.534;8.262;2022-11-03T19:29:01;6.03;;;2.67;;
17658;SDS011;8948;51.534;8.262;2022-11-03T19:34:06;4.57;;;2.60;;
17658;SDS011;8948;51.534;8.262;2022-11-03T19:39:21;4.90;;;2.30;;
17658;SDS011;8948;51.534;8.262;2022-11-03T19:44:28;6.17;;;2.43;;
17658;SDS011;8948;51.534;8.262;2022-11-03T19:49:28;3.47;;;2.13;;
17658;SDS011;8948;51.534;8.262;2022-11-03T19:54:29;6.77;;;2.90;;
17658;SDS011;8948;51.534;8.262;2022-11-03T19:59:30;5.53;;;2.53;;
17658;SDS011;8948;51.534;8.262;2022-11-03T20:04:30;5.10;;;3.20;;
17658;SDS011;8948;51.534;8.262;2022-11-03T20:09:31;6.13;;;3.03;;
17658;SDS011;8948;51.534;8.262;2022-11-03T20:14:32;4.50;;;2.80;;
17658;SDS011;8948;51.534;8.262;2022-11-03T20:19:34;8.43;;;3.03;;
17658;SDS011;8948;51.534;8.262;2022-11-03T20:24:34;4.93;;;3.03;;
17658;SDS011;8948;51.534;8.262;2022-11-03T20:29:35;5.83;;;3.40;;
17658;SDS011;8948;51.534;8.262;2022-11-03T20:34:38;4.80;;;3.37;;
17658;SDS011;8948;51.534;8.262;2022-11-03T20:39:39;7.30;;;3.00;;
17658;SDS011;8948;51.534;8.262;2022-11-03T20:44:40;8.07;;;3.60;;
17658;SDS011;8948;51.534;8.262;2022-11-03T20:49:41;6.70;;;3.60;;
17658;SDS011;8948;51.534;8.262;2022-11-03T20:54:41;5.93;;;4.03;;
17658;SDS011;8948;51.534;8.262;2022-11-03T20:59:42;6.87;;;2.87;;
17658;SDS011;8948;51.534;8.262;2022-11-03T21:04:42;7.83;;;2.90;;
17658;SDS011;8948;51.534;8.262;2022-11-03T21:09:43;5.67;;;3.37;;
17658;SDS011;8948;51.534;8.262;2022-11-03T21:14:44;3.50;;;2.30;;
17658;SDS011;8948;51.534;8.262;2022-11-03T21:20:03;3.13;;;2.13;;
17658;SDS011;8948;51.534;8.262;2022-11-03T21:25:11;2.67;;;1.97;;
17658;SDS011;8948;51.534;8.262;2022-11-03T21:30:13;3.23;;;1.87;;
17658;SDS011;8948;51.534;8.262;2022-11-03T21:35:16;3.80;;;2.07;;
17658;SDS011;8948;51.534;8.262;2022-11-03T21:40:19;3.37;;;1.73;;
17658;SDS011;8948;51.534;8.262;2022-11-03T21:45:19;2.67;;;2.00;;
17658;SDS011;8948;51.534;8.262;2022-11-03T21:50:20;4.37;;;2.00;;
17658;SDS011;8948;51.534;8.262;2022-11-03T21:55:20;2.67;;;1.70;;
17658;SDS011;8948;51.534;8.262;2022-11-03T22:00:21;2.73;;;1.77;;
17658;SDS011;8948;51.534;8.262;2022-11-03T22:05:21;3.97;;;2.00;;
17658;SDS011;8948;51.534;8.262;2022-11-03T22:10:22;3.27;;;1.60;;
17658;SDS011;8948;51.534;8.262;2022-11-03T22:15:22;3.53;;;2.00;;
17658;SDS011;8948;51.534;8.262;2022-11-03T22:20:42;5.03;;;1.77;;
17658;SDS011;8948;51.534;8.262;2022-11-03T22:26:17;3.37;;;2.10;;
17658;SDS011;8948;51.534;8.262;2022-11-03T22:31:37;1.80;;;1.60;;
17658;SDS011;8948;51.534;8.262;2022-11-03T22:36:40;4.10;;;1.63;;
17658;SDS011;8948;51.534;8.262;2022-11-03T22:41:41;2.13;;;1.57;;
17658;SDS011;8948;51.534;8.262;2022-11-03T22:47:00;2.00;;;1.40;;
17658;SDS011;8948;51.534;8.262;2022-11-03T22:52:00;2.07;;;1.50;;
17658;SDS011;8948;51.534;8.262;2022-11-03T22:57:01;1.40;;;1.30;;
17658;SDS011;8948;51.534;8.262;2022-11-03T23:02:02;1.70;;;1.50;;
17658;SDS011;8948;51.534;8.262;2022-11-03T23:07:02;3.57;;;1.60;;
17658;SDS011;8948;51.534;8.262;2022-11-03T23:12:03;2.07;;;1.57;;
17658;SDS011;8948;51.534;8.262;2022-11-03T23:17:03;2.33;;;1.50;;
17658;SDS011;8948;51.534;8.262;2022-11-03T23:22:04;3.07;;;1.43;;
17658;SDS011;8948;51.534;8.262;2022-11-03T23:27:05;1.70;;;1.33;;
17658;SDS011;8948;51.534;8.262;2022-11-03T23:32:06;2.60;;;1.43;;
17658;SDS011;8948;51.534;8.262;2022-11-03T23:37:06;5.50;;;1.60;;
17658;SDS011;8948;51.534;8.262;2022-11-03T23:42:07;1.40;;;1.23;;
17658;SDS011;8948;51.534;8.262;2022-11-03T23:47:07;7.23;;;1.97;;
17658;SDS011;8948;51.534;8.262;2022-11-03T23:52:27;1.53;;;1.20;;
17658;SDS011;8948;51.534;8.262;2022-11-03T23:57:27;1.60;;;1.40;;
